Time;durP1;ratioP1;P1;durP2;ratioP2;P2;SDS_P1;SDS_P2;PMS_P1;PMS_P2;Temp;Humidity;BMP_temperature;BMP_pressure;BME280_temperature;BME280_humidity;BME280_pressure;Samples;Min_cycle;Max_cycle;Signal;HPM_P1;HPM_P2
2022/09/16 00:02:12;;;;;;;11.93;3.28;;;19.30;99.90;;;;;;5113680;28;20073;-75
2022/09/16 00:04:40;;;;;;;13.40;3.58;;;19.20;99.90;;;;;;5113339;28;20035;-75
2022/09/16 00:07:07;;;;;;;10.20;3.65;;;19.20;99.90;;;;;;5113768;28;20101;-75
2022/09/16 00:09:37;;;;;;;8.07;3.28;;;19.20;99.90;;;;;;5113762;28;20552;-75
2022/09/16 00:12:04;;;;;;;10.75;3.67;;;19.20;99.90;;;;;;5113350;28;20044;-75
2022/09/16 00:14:31;;;;;;;10.98;3.65;;;19.20;99.90;;;;;;5113338;28;20043;-75
2022/09/16 00:16:59;;;;;;;6.07;3.28;;;19.20;99.90;;;;;;5113650;28;20036;-75
2022/09/16 00:19:27;;;;;;;9.80;3.30;;;19.10;99.90;;;;;;5113193;28;20043;-75
2022/09/16 00:21:55;;;;;;;10.02;3.20;;;19.10;99.90;;;;;;5113281;28;20035;-75
2022/09/16 00:24:22;;;;;;;8.15;3.05;;;19.00;99.90;;;;;;5112549;28;20449;-75
2022/09/16 00:26:49;;;;;;;7.20;3.28;;;19.00;99.90;;;;;;5113517;28;20046;-75
2022/09/16 00:29:17;;;;;;;11.13;4.05;;;19.00;99.90;;;;;;5113209;28;20560;-75
2022/09/16 00:31:44;;;;;;;9.90;3.45;;;18.90;99.90;;;;;;5113628;28;20047;-75
2022/09/16 00:34:11;;;;;;;7.40;3.80;;;18.90;99.90;;;;;;5111332;28;20502;-75
2022/09/16 00:36:40;;;;;;;9.48;3.60;;;18.90;99.90;;;;;;5113354;28;20448;-75
2022/09/16 00:39:07;;;;;;;10.23;4.07;;;18.80;99.90;;;;;;5113686;28;20047;-75
2022/09/16 00:41:36;;;;;;;8.48;3.10;;;18.70;99.90;;;;;;5113394;28;20047;-75
2022/09/16 00:44:06;;;;;;;10.77;4.00;;;18.70;99.90;;;;;;5113092;28;20048;-76
2022/09/16 00:46:41;;;;;;;10.85;3.85;;;18.60;99.90;;;;;;5113394;28;20052;-75
2022/09/16 00:49:15;;;;;;;15.00;5.72;;;18.60;99.90;;;;;;5114019;28;20410;-75
2022/09/16 00:51:47;;;;;;;8.13;3.67;;;18.50;99.90;;;;;;5113940;28;20510;-75
2022/09/16 00:54:16;;;;;;;11.85;4.72;;;18.50;99.90;;;;;;5112291;28;20213;-75
2022/09/16 00:56:46;;;;;;;9.20;3.08;;;18.40;99.90;;;;;;5113124;28;20059;-75
2022/09/16 00:59:18;;;;;;;14.10;3.22;;;18.40;99.90;;;;;;5113075;28;20043;-75
2022/09/16 01:01:46;;;;;;;6.50;2.90;;;18.20;99.90;;;;;;5113235;28;20547;-75
2022/09/16 01:04:18;;;;;;;8.13;3.25;;;18.20;99.90;;;;;;5115143;28;20094;-75
2022/09/16 01:06:46;;;;;;;9.05;3.35;;;18.20;99.90;;;;;;5116735;28;20498;-75
2022/09/16 01:09:14;;;;;;;6.47;3.15;;;18.20;99.90;;;;;;5116062;28;20058;-76
2022/09/16 01:11:41;;;;;;;8.73;4.40;;;18.10;99.90;;;;;;5116957;28;20050;-75
2022/09/16 01:17:00;;;;;;;7.05;3.28;;;18.10;99.90;;;;;;5116806;28;20032;-75
2022/09/16 01:19:45;;;;;;;12.90;3.30;;;18.10;99.90;;;;;;5115948;28;20050;-75
2022/09/16 01:22:28;;;;;;;8.43;2.80;;;18.10;99.90;;;;;;5097901;28;20111;-75
2022/09/16 01:25:03;;;;;;;9.73;3.08;;;18.10;99.90;;;;;;5115952;28;20036;-75
2022/09/16 01:27:52;;;;;;;9.70;3.57;;;18.10;99.90;;;;;;5116520;28;20040;-75
2022/09/16 01:30:47;;;;;;;7.57;2.70;;;18.00;99.90;;;;;;5116492;28;20040;-75
2022/09/16 01:33:24;;;;;;;14.10;3.33;;;18.00;99.90;;;;;;5115849;28;20570;-75
2022/09/16 01:36:14;;;;;;;8.50;3.72;;;17.90;99.90;;;;;;5116322;28;20543;-75
2022/09/16 01:38:52;;;;;;;8.40;3.75;;;17.90;99.90;;;;;;5116205;28;20100;-75
2022/09/16 01:41:26;;;;;;;9.70;4.20;;;17.90;99.90;;;;;;5098158;28;20044;-75
2022/09/16 01:44:00;;;;;;;10.40;3.92;;;17.80;99.90;;;;;;5096925;28;20434;-75
2022/09/16 01:46:40;;;;;;;10.30;4.13;;;17.80;99.90;;;;;;5116137;28;20043;-75
2022/09/16 01:49:16;;;;;;;8.48;4.20;;;17.80;99.90;;;;;;5116341;28;20051;-74
2022/09/16 01:51:48;;;;;;;;;;;17.70;99.90;;;;;;5116662;28;20074;-75
2022/09/16 01:54:23;;;;;;;12.77;5.05;;;17.70;99.90;;;;;;5097795;28;19919;-75
2022/09/16 01:56:59;;;;;;;7.95;4.22;;;17.60;99.90;;;;;;5114445;28;20486;-75
2022/09/16 01:59:34;;;;;;;6.80;4.32;;;17.60;99.90;;;;;;5116270;28;20036;-75
2022/09/16 02:02:07;;;;;;;12.40;4.63;;;17.50;99.90;;;;;;5116026;27;20043;-75
2022/09/16 02:04:39;;;;;;;9.10;4.53;;;17.40;99.90;;;;;;5115186;28;20054;-76
2022/09/16 02:07:11;;;;;;;13.48;4.63;;;17.40;99.90;;;;;;5088604;28;20052;-76
2022/09/16 02:09:43;;;;;;;9.45;3.80;;;17.50;99.90;;;;;;5115884;28;20075;-75
2022/09/16 02:12:14;;;;;;;9.38;3.78;;;17.50;99.90;;;;;;5115654;28;20085;-75
2022/09/16 02:14:43;;;;;;;12.50;3.40;;;17.40;99.90;;;;;;5115160;28;20471;-75
2022/09/16 02:17:16;;;;;;;11.88;4.03;;;17.40;99.90;;;;;;5095634;28;20486;-75
2022/09/16 02:19:48;;;;;;;9.75;3.65;;;17.40;99.90;;;;;;5077277;28;20040;-75
2022/09/16 02:22:18;;;;;;;8.52;3.88;;;17.30;99.90;;;;;;5095276;28;20040;-75
2022/09/16 02:24:48;;;;;;;9.20;3.92;;;17.30;99.90;;;;;;5104217;28;20036;-75
2022/09/16 02:27:18;;;;;;;9.63;3.70;;;17.30;99.90;;;;;;5115460;28;20119;-75
2022/09/16 02:29:50;;;;;;;8.60;3.28;;;17.30;99.90;;;;;;5116006;28;20071;-75
2022/09/16 02:32:20;;;;;;;9.05;3.55;;;17.40;99.90;;;;;;5114056;28;20108;-75
2022/09/16 02:34:50;;;;;;;7.75;3.60;;;17.30;99.90;;;;;;5114931;28;20044;-75
2022/09/16 02:37:21;;;;;;;10.73;3.90;;;17.30;99.90;;;;;;5115884;28;20055;-74
2022/09/16 02:39:52;;;;;;;9.10;3.95;;;17.20;99.90;;;;;;5115514;28;20085;-74
2022/09/16 02:42:19;;;;;;;8.50;3.67;;;17.30;99.90;;;;;;5114259;28;20093;-74
2022/09/16 02:44:47;;;;;;;6.70;3.60;;;17.30;99.90;;;;;;5096761;28;20418;-74
2022/09/16 02:47:22;;;;;;;7.85;4.00;;;17.30;99.90;;;;;;5114960;28;20089;-75
2022/09/16 02:49:55;;;;;;;12.02;3.38;;;17.20;99.90;;;;;;5115284;28;20059;-75
2022/09/16 02:52:30;;;;;;;9.38;3.97;;;17.20;99.90;;;;;;5113046;28;20036;-75
2022/09/16 02:55:05;;;;;;;7.00;3.28;;;17.20;99.90;;;;;;5096464;28;20052;-75
2022/09/16 02:57:33;;;;;;;10.40;3.35;;;17.20;99.90;;;;;;5114912;28;20036;-75
2022/09/16 03:00:00;;;;;;;8.80;4.55;;;17.30;99.90;;;;;;5113366;28;20459;-75
2022/09/16 03:02:31;;;;;;;12.75;4.13;;;17.30;99.90;;;;;;5104561;28;20138;-76
2022/09/16 03:04:59;;;;;;;10.52;4.07;;;17.30;99.90;;;;;;5094561;28;20050;-75
2022/09/16 03:07:27;;;;;;;15.95;4.63;;;17.30;99.90;;;;;;5094185;28;20123;-75
2022/09/16 03:09:54;;;;;;;13.80;4.28;;;17.30;99.90;;;;;;5094065;28;20487;-75
2022/09/16 03:12:48;;;;;;;10.73;4.45;;;17.40;99.90;;;;;;5093030;28;20036;-75
2022/09/16 03:15:50;;;;;;;10.23;4.32;;;17.40;99.90;;;;;;5068454;28;20052;-75
2022/09/16 03:18:34;;;;;;;9.15;3.70;;;17.40;99.90;;;;;;5053808;28;20060;-75
2022/09/16 03:21:09;;;;;;;9.30;3.70;;;17.40;99.90;;;;;;5073643;28;20119;-75
2022/09/16 03:23:45;;;;;;;13.77;4.33;;;17.40;99.90;;;;;;5073506;28;20051;-76
2022/09/16 03:26:21;;;;;;;19.40;4.18;;;17.40;99.90;;;;;;5091289;28;20465;-75
2022/09/16 03:28:58;;;;;;;10.20;3.88;;;17.50;99.90;;;;;;5091724;28;20093;-75
2022/09/16 03:31:30;;;;;;;10.52;3.70;;;17.50;99.90;;;;;;5075703;28;20043;-75
2022/09/16 03:34:06;;;;;;;13.15;3.63;;;17.50;99.90;;;;;;5083014;28;20491;-75
2022/09/16 03:36:39;;;;;;;7.00;3.30;;;17.50;99.90;;;;;;5093591;28;20044;-75
2022/09/16 03:39:06;;;;;;;11.65;4.50;;;17.50;99.90;;;;;;5093683;28;20552;-75
2022/09/16 03:41:35;;;;;;;8.93;3.85;;;17.50;99.90;;;;;;5075654;28;20036;-75
2022/09/16 03:44:02;;;;;;;5.57;3.78;;;17.40;99.90;;;;;;5093152;28;20040;-75
2022/09/16 03:46:30;;;;;;;10.00;3.70;;;17.40;99.90;;;;;;5093480;28;20102;-75
2022/09/16 03:48:59;;;;;;;9.63;3.80;;;17.40;99.90;;;;;;5093535;28;20040;-75
2022/09/16 03:51:26;;;;;;;9.50;3.35;;;17.30;99.90;;;;;;5092425;28;20039;-75
2022/09/16 03:53:54;;;;;;;12.95;3.78;;;17.30;99.90;;;;;;5098920;28;20123;-75
2022/09/16 03:56:23;;;;;;;10.38;4.10;;;17.30;99.90;;;;;;5110630;28;20460;-75
2022/09/16 03:58:51;;;;;;;10.43;4.95;;;17.30;99.90;;;;;;5113914;28;20101;-75
2022/09/16 04:01:19;;;;;;;16.17;5.03;;;17.30;99.90;;;;;;5113765;28;20070;-76
2022/09/16 04:03:46;;;;;;;13.93;5.28;;;17.40;99.90;;;;;;5113398;28;20491;-75
2022/09/16 04:06:15;;;;;;;10.82;4.28;;;17.40;99.90;;;;;;5113363;28;20101;-75
2022/09/16 04:08:43;;;;;;;9.05;5.32;;;17.50;99.90;;;;;;5112564;28;20040;-75
2022/09/16 04:11:11;;;;;;;12.85;4.80;;;17.40;99.90;;;;;;5113482;28;20039;-75
2022/09/16 04:13:38;;;;;;;15.52;6.13;;;17.50;99.90;;;;;;5113200;28;20502;-75
2022/09/16 04:16:06;;;;;;;12.10;4.32;;;17.40;99.90;;;;;;5113787;28;20040;-76
2022/09/16 04:18:34;;;;;;;11.23;4.70;;;17.40;99.90;;;;;;5113294;28;20054;-75
2022/09/16 04:21:03;;;;;;;10.02;4.32;;;17.30;99.90;;;;;;5095303;28;20040;-76
2022/09/16 04:23:32;;;;;;;8.85;4.60;;;17.30;99.90;;;;;;5113149;28;20135;-75
2022/09/16 04:26:01;;;;;;;10.10;4.00;;;17.40;99.90;;;;;;5113626;28;20095;-75
2022/09/16 04:28:30;;;;;;;11.55;4.10;;;17.30;99.90;;;;;;5113966;28;20039;-75
2022/09/16 04:31:01;;;;;;;12.52;4.00;;;17.30;99.90;;;;;;5095757;28;20061;-75
2022/09/16 04:33:29;;;;;;;7.72;3.50;;;17.30;99.90;;;;;;5115021;28;20040;-75
2022/09/16 04:36:03;;;;;;;8.60;3.75;;;17.30;99.90;;;;;;5114304;28;20044;-75
2022/09/16 04:38:32;;;;;;;20.50;5.15;;;17.40;99.90;;;;;;5116102;28;20199;-75
2022/09/16 04:41:05;;;;;;;12.35;4.35;;;17.40;99.90;;;;;;5118042;28;20044;-75
2022/09/16 04:43:33;;;;;;;11.02;4.53;;;17.50;99.90;;;;;;5117619;28;20077;-75
2022/09/16 04:46:00;;;;;;;6.60;3.53;;;17.50;99.90;;;;;;5117521;28;20046;-75
2022/09/16 04:48:29;;;;;;;13.70;4.35;;;17.50;99.90;;;;;;5117078;28;20093;-75
2022/09/16 04:51:03;;;;;;;6.47;3.67;;;17.60;99.90;;;;;;5117313;28;20118;-75
2022/09/16 04:53:32;;;;;;;9.45;4.20;;;17.60;99.90;;;;;;5116737;28;20216;-75
2022/09/16 04:56:07;;;;;;;10.32;4.78;;;17.60;99.90;;;;;;5116746;28;20047;-75
2022/09/16 04:58:34;;;;;;;9.73;4.80;;;17.60;99.90;;;;;;5116564;28;20040;-76
2022/09/16 05:01:11;;;;;;;8.95;5.28;;;17.70;99.90;;;;;;5116604;28;20092;-75
2022/09/16 05:03:39;;;;;;;13.80;5.68;;;17.70;99.90;;;;;;5117038;28;20491;-75
2022/09/16 05:06:12;;;;;;;11.77;4.88;;;17.70;99.90;;;;;;5117024;28;20483;-74
2022/09/16 05:08:40;;;;;;;10.18;4.93;;;17.70;99.90;;;;;;5116975;28;20048;-75
2022/09/16 05:11:10;;;;;;;11.32;5.05;;;17.80;99.90;;;;;;5116880;28;20399;-75
2022/09/16 05:13:38;;;;;;;7.45;4.80;;;17.80;99.90;;;;;;5116187;28;20495;-75
2022/09/16 05:16:07;;;;;;;9.30;4.32;;;17.80;99.90;;;;;;5116445;28;20100;-75
2022/09/16 05:18:34;;;;;;;8.48;4.20;;;17.80;99.90;;;;;;5117051;28;20035;-75
2022/09/16 05:21:04;;;;;;;16.40;4.88;;;17.90;99.90;;;;;;5116489;28;20467;-75
2022/09/16 05:23:32;;;;;;;29.65;7.95;;;17.90;99.90;;;;;;5114633;28;20047;-75
2022/09/16 05:26:05;;;;;;;11.65;5.55;;;18.00;99.90;;;;;;5116128;28;20092;-74
2022/09/16 05:28:33;;;;;;;10.45;4.18;;;18.00;99.90;;;;;;5097696;28;20391;-75
2022/09/16 05:31:11;;;;;;;12.20;4.75;;;18.00;99.90;;;;;;5097958;28;20123;-75
2022/09/16 05:33:39;;;;;;;11.07;4.50;;;18.10;99.90;;;;;;5115690;28;20051;-75
2022/09/16 05:36:09;;;;;;;12.50;3.60;;;18.20;99.90;;;;;;5116063;28;20150;-75
2022/09/16 05:38:36;;;;;;;7.75;4.03;;;18.20;99.90;;;;;;5115270;28;20043;-75
2022/09/16 05:41:06;;;;;;;8.93;4.38;;;18.20;99.90;;;;;;5116019;28;20043;-75
2022/09/16 05:43:34;;;;;;;11.18;4.25;;;18.20;99.90;;;;;;5114568;28;20174;-77
2022/09/16 05:46:02;;;;;;;11.95;6.72;;;18.20;99.90;;;;;;5097180;28;20074;-75
2022/09/16 05:48:29;;;;;;;12.30;4.10;;;18.30;99.90;;;;;;5115866;28;20427;-75
2022/09/16 05:50:58;;;;;;;9.70;3.97;;;18.30;99.90;;;;;;5114266;28;20047;-75
2022/09/16 05:53:27;;;;;;;9.00;3.55;;;18.30;99.90;;;;;;5115486;28;20148;-76
2022/09/16 05:55:56;;;;;;;16.70;6.75;;;18.40;99.90;;;;;;5097119;28;20071;-76
2022/09/16 05:58:26;;;;;;;11.65;4.97;;;18.40;99.90;;;;;;5115285;28;20047;-76
2022/09/16 06:01:01;;;;;;;14.02;7.25;;;18.40;99.90;;;;;;5114771;28;20407;-76
2022/09/16 06:03:29;;;;;;;8.07;4.43;;;18.40;99.90;;;;;;5117918;28;20486;-73
2022/09/16 06:06:00;;;;;;;10.52;4.85;;;18.30;99.90;;;;;;5097547;28;20048;-74
2022/09/16 06:08:29;;;;;;;10.20;4.45;;;18.10;99.90;;;;;;5115688;28;20084;-74
2022/09/16 06:10:56;;;;;;;11.07;5.05;;;18.00;99.90;;;;;;5115422;28;20043;-74
2022/09/16 06:13:25;;;;;;;10.35;4.82;;;17.90;99.90;;;;;;5115723;28;20051;-74
2022/09/16 06:15:54;;;;;;;8.68;4.10;;;17.80;99.90;;;;;;5116824;28;20057;-74
2022/09/16 06:18:21;;;;;;;10.10;5.95;;;17.80;99.90;;;;;;5116779;28;20051;-75
2022/09/16 06:20:48;;;;;;;9.25;4.25;;;17.80;99.90;;;;;;5110752;28;20035;-75
2022/09/16 06:23:16;;;;;;;11.50;5.50;;;17.80;99.90;;;;;;5113017;28;20402;-75
2022/09/16 06:25:44;;;;;;;12.65;7.43;;;17.80;99.90;;;;;;5113197;28;20062;-74
2022/09/16 06:28:11;;;;;;;10.68;6.43;;;17.90;99.90;;;;;;5114730;28;20055;-74
2022/09/16 06:30:41;;;;;;;9.23;5.30;;;18.00;99.90;;;;;;5104268;28;20054;-75
2022/09/16 06:33:10;;;;;;;13.63;6.30;;;18.00;99.90;;;;;;5116040;28;20050;-74
2022/09/16 06:35:37;;;;;;;15.50;6.05;;;18.10;99.90;;;;;;5121712;28;20047;-75
2022/09/16 06:38:04;;;;;;;9.70;5.43;;;18.30;99.90;;;;;;5097422;28;20074;-75
2022/09/16 06:40:32;;;;;;;15.10;5.90;;;18.40;99.90;;;;;;5115582;28;20035;-75
2022/09/16 06:42:59;;;;;;;8.63;4.43;;;18.50;99.90;;;;;;5116161;28;20104;-75
2022/09/16 06:45:28;;;;;;;8.52;5.20;;;18.40;99.90;;;;;;5097035;28;20123;-75
2022/09/16 06:48:00;;;;;;;14.65;9.02;;;18.40;99.90;;;;;;5114989;28;20043;-74
2022/09/16 06:50:28;;;;;;;19.30;10.85;;;18.60;99.90;;;;;;5096387;28;20051;-75
2022/09/16 06:52:55;;;;;;;13.65;7.85;;;18.80;99.90;;;;;;5114789;28;20048;-74
2022/09/16 06:55:23;;;;;;;9.73;5.70;;;18.90;99.90;;;;;;5115198;28;20185;-74
2022/09/16 06:57:50;;;;;;;15.27;6.85;;;19.00;99.90;;;;;;5096603;28;20101;-74
2022/09/16 07:00:17;;;;;;;15.32;6.97;;;19.30;99.90;;;;;;5114905;28;20047;-74
2022/09/16 07:02:45;;;;;;;9.25;5.53;;;19.50;99.90;;;;;;5096977;28;20043;-74
2022/09/16 07:05:14;;;;;;;11.82;5.57;;;19.70;99.90;;;;;;5117766;28;20055;-74
2022/09/16 07:07:41;;;;;;;11.70;4.95;;;20.00;99.90;;;;;;5127429;28;20051;-74
2022/09/16 07:10:09;;;;;;;9.13;5.28;;;20.30;99.90;;;;;;5118357;28;20047;-74
2022/09/16 07:12:36;;;;;;;10.68;5.03;;;20.60;99.90;;;;;;5119968;28;20088;-74
2022/09/16 07:15:04;;;;;;;9.95;5.63;;;20.90;99.90;;;;;;5107642;28;20505;-74
2022/09/16 07:17:32;;;;;;;11.45;5.35;;;21.10;99.90;;;;;;5114822;28;20096;-74
2022/09/16 07:19:59;;;;;;;12.98;6.20;;;21.20;99.90;;;;;;5116595;28;20059;-73
2022/09/16 07:22:31;;;;;;;8.00;5.30;;;21.40;99.90;;;;;;5120455;28;20034;-75
2022/09/16 07:24:58;;;;;;;8.90;5.35;;;21.40;99.90;;;;;;5115473;28;20164;-75
2022/09/16 07:27:26;;;;;;;7.07;5.07;;;21.40;99.90;;;;;;5114710;28;20414;-74
2022/09/16 07:29:55;;;;;;;18.30;7.35;;;21.20;99.90;;;;;;5114537;28;20074;-75
2022/09/16 07:32:23;;;;;;;8.05;5.85;;;21.10;99.90;;;;;;5115230;28;20124;-74
2022/09/16 07:34:50;;;;;;;11.73;6.85;;;21.00;99.90;;;;;;5096388;28;20043;-74
2022/09/16 07:37:18;;;;;;;8.45;5.25;;;20.90;99.90;;;;;;5096328;28;20059;-74
2022/09/16 07:39:47;;;;;;;7.30;6.43;;;20.80;99.90;;;;;;5114187;28;20054;-74
2022/09/16 07:42:15;;;;;;;11.00;7.10;;;20.80;99.90;;;;;;5113948;28;20509;-74
2022/09/16 07:44:42;;;;;;;11.60;6.63;;;20.70;99.90;;;;;;5113770;28;20050;-74
2022/09/16 07:47:09;;;;;;;13.25;6.13;;;20.40;99.90;;;;;;5114930;28;20051;-74
2022/09/16 07:49:37;;;;;;;10.43;7.03;;;20.20;99.90;;;;;;5114584;28;20039;-75
2022/09/16 07:52:04;;;;;;;14.63;7.45;;;20.10;99.90;;;;;;5114160;28;20482;-75
2022/09/16 07:54:31;;;;;;;12.50;7.38;;;19.90;99.90;;;;;;5113200;28;20039;-76
2022/09/16 07:57:00;;;;;;;9.07;6.57;;;19.90;99.90;;;;;;5113749;28;20078;-75
2022/09/16 07:59:28;;;;;;;9.80;6.30;;;19.70;99.90;;;;;;5112284;28;20044;-75
2022/09/16 08:01:55;;;;;;;11.52;7.65;;;19.50;99.90;;;;;;5113645;28;20036;-75
2022/09/16 08:04:22;;;;;;;9.98;6.95;;;19.40;99.90;;;;;;5113499;28;20051;-75
2022/09/16 08:06:50;;;;;;;11.52;8.88;;;19.40;99.90;;;;;;5113644;28;20093;-75
2022/09/16 08:09:17;;;;;;;12.18;7.82;;;19.50;99.90;;;;;;5113341;28;20043;-75
2022/09/16 08:11:45;;;;;;;10.18;7.93;;;19.70;99.90;;;;;;5113416;28;20483;-75
2022/09/16 08:14:13;;;;;;;10.88;6.68;;;19.90;99.90;;;;;;5117407;28;20159;-75
2022/09/16 08:16:41;;;;;;;9.00;6.43;;;20.10;99.90;;;;;;5116452;28;20100;-75
2022/09/16 08:19:09;;;;;;;16.33;8.18;;;20.30;99.90;;;;;;5099524;28;20044;-75
2022/09/16 08:21:36;;;;;;;10.73;8.50;;;20.60;99.90;;;;;;5117525;28;20061;-75
2022/09/16 08:24:03;;;;;;;14.77;7.20;;;21.10;99.90;;;;;;5117563;28;20032;-75
2022/09/16 08:26:31;;;;;;;10.65;7.13;;;21.30;99.90;;;;;;5117531;28;20120;-75
2022/09/16 08:28:58;;;;;;;9.90;6.90;;;21.30;99.90;;;;;;5117778;28;20100;-75
2022/09/16 08:31:27;;;;;;;10.32;7.40;;;21.40;99.90;;;;;;5116158;28;20464;-75
2022/09/16 08:33:55;;;;;;;12.85;7.60;;;21.60;99.90;;;;;;5117727;28;20487;-75
2022/09/16 08:36:24;;;;;;;10.40;7.45;;;21.90;99.90;;;;;;5117733;28;20409;-75
2022/09/16 08:38:54;;;;;;;11.77;9.00;;;22.00;99.90;;;;;;5117460;28;20143;-75
2022/09/16 08:41:39;;;;;;;10.30;7.57;;;22.30;99.90;;;;;;5116949;28;20462;-75
2022/09/16 08:44:15;;;;;;;9.07;7.50;;;22.40;99.90;;;;;;5116802;28;20047;-75
2022/09/16 08:46:51;;;;;;;14.52;8.15;;;22.60;99.90;;;;;;5117188;28;20051;-75
2022/09/16 08:49:27;;;;;;;13.05;9.60;;;22.40;99.90;;;;;;5115530;28;20043;-75
2022/09/16 08:51:55;;;;;;;10.32;7.72;;;22.40;99.90;;;;;;5116967;28;20440;-75
2022/09/16 08:54:28;;;;;;;8.48;4.32;;;22.40;99.90;;;;;;5107659;28;20495;-79
2022/09/16 08:57:00;;;;;;;4.95;3.13;;;22.40;99.90;;;;;;5117315;28;20043;-76
2022/09/16 08:59:32;;;;;;;6.03;4.40;;;21.90;99.90;;;;;;5096293;28;20067;-76
2022/09/16 09:02:21;;;;;;;7.30;4.30;;;21.50;99.90;;;;;;5102636;28;20049;-74
2022/09/16 09:04:48;;;;;;;8.40;6.10;;;21.40;99.90;;;;;;5116426;28;20562;-75
2022/09/16 09:07:27;;;;;;;8.73;5.20;;;21.30;99.90;;;;;;5116517;28;20043;-73
2022/09/16 09:10:02;;;;;;;7.80;3.97;;;21.40;99.90;;;;;;5116426;28;20114;-76
2022/09/16 09:12:37;;;;;;;8.27;4.83;;;21.30;99.90;;;;;;5115984;28;20044;-75
2022/09/16 09:15:27;;;;;;;10.90;8.55;;;21.10;99.90;;;;;;5116304;28;20043;-76
2022/09/16 09:18:07;;;;;;;9.98;5.85;;;21.00;99.90;;;;;;5098169;28;20074;-76
2022/09/16 09:20:48;;;;;;;10.50;6.95;;;20.90;99.90;;;;;;5116538;28;20406;-76
2022/09/16 09:23:37;;;;;;;7.82;5.13;;;20.90;99.90;;;;;;5116076;28;20075;-76
2022/09/16 09:26:12;;;;;;;6.85;4.68;;;20.90;99.90;;;;;;5116442;28;20115;-75
2022/09/16 09:28:59;;;;;;;6.00;3.78;;;21.00;99.90;;;;;;5095134;28;20056;-75
2022/09/16 09:31:38;;;;;;;8.77;5.97;;;21.00;99.90;;;;;;5111358;28;20053;-75
2022/09/16 09:34:20;;;;;;;9.07;5.30;;;21.00;99.90;;;;;;5116533;28;20555;-75
2022/09/16 09:37:02;;;;;;;7.25;5.00;;;21.20;99.90;;;;;;5116403;28;20047;-75
2022/09/16 09:39:42;;;;;;;14.52;11.30;;;21.30;99.90;;;;;;5116360;28;20104;-75
2022/09/16 09:42:16;;;;;;;7.95;5.88;;;22.00;99.90;;;;;;5116485;28;20097;-76
2022/09/16 09:44:52;;;;;;;11.25;7.22;;;22.30;99.90;;;;;;5116415;28;20039;-75
2022/09/16 09:47:26;;;;;;;11.57;5.50;;;22.90;99.90;;;;;;5115977;28;20048;-76
2022/09/16 09:49:57;;;;;;;6.85;3.78;;;23.60;99.90;;;;;;5115729;28;20043;-76
2022/09/16 09:52:32;;;;;;;9.70;3.97;;;23.90;1.00;;;;;;5115642;28;20047;-76
2022/09/16 09:55:13;;;;;;;7.63;4.82;;;23.70;99.90;;;;;;5115583;28;20048;-77
2022/09/16 09:57:45;;;;;;;6.22;4.35;;;23.40;99.90;;;;;;5097303;28;20048;-77
2022/09/16 10:00:16;;;;;;;11.55;8.45;;;23.20;99.90;;;;;;5095049;28;20079;-77
2022/09/16 10:02:45;;;;;;;10.38;5.38;;;23.20;99.90;;;;;;5091687;28;20436;-77
2022/09/16 10:05:22;;;;;;;14.68;6.97;;;23.20;99.90;;;;;;5115691;28;20134;-77
2022/09/16 10:07:51;;;;;;;7.05;4.75;;;23.30;99.90;;;;;;5116432;28;20111;-77
2022/09/16 10:10:22;;;;;;;11.50;5.68;;;23.20;99.90;;;;;;5116794;28;20036;-77
2022/09/16 10:12:49;;;;;;;7.10;4.78;;;23.20;99.90;;;;;;5097877;28;20135;-77
2022/09/16 10:15:22;;;;;;;10.27;5.53;;;23.30;99.90;;;;;;5116418;28;20047;-77
2022/09/16 10:17:50;;;;;;;10.02;6.00;;;23.00;99.90;;;;;;5115457;28;20047;-77
2022/09/16 10:20:27;;;;;;;10.20;6.15;;;22.70;99.90;;;;;;5115788;28;20096;-77
2022/09/16 10:23:00;;;;;;;8.65;6.40;;;22.80;99.90;;;;;;5115667;28;20406;-77
2022/09/16 10:25:29;;;;;;;16.02;8.88;;;22.90;99.90;;;;;;5115186;28;20550;-77
2022/09/16 10:27:59;;;;;;;8.57;5.65;;;23.10;99.90;;;;;;5115283;28;20506;-77
2022/09/16 10:30:28;;;;;;;9.02;5.93;;;23.10;99.90;;;;;;5116031;28;20376;-77
2022/09/16 10:33:00;;;;;;;9.25;5.90;;;23.20;99.90;;;;;;5114807;28;20043;-77
2022/09/16 10:35:30;;;;;;;13.23;11.07;;;22.80;99.90;;;;;;5114269;28;20116;-77
2022/09/16 10:38:01;;;;;;;11.43;6.35;;;23.10;99.90;;;;;;5114984;28;20459;-77
2022/09/16 10:40:29;;;;;;;12.80;7.85;;;23.30;99.90;;;;;;5115343;28;20437;-77
2022/09/16 10:43:01;;;;;;;13.43;11.63;;;23.40;99.90;;;;;;5115226;28;20042;-76
2022/09/16 10:45:30;;;;;;;11.10;7.47;;;23.60;99.90;;;;;;5097675;28;20053;-77
2022/09/16 10:48:00;;;;;;;14.68;7.00;;;23.80;72.50;;;;;;5115573;28;20047;-77
2022/09/16 10:50:29;;;;;;;11.38;6.40;;;23.80;63.10;;;;;;5114661;28;20044;-77
2022/09/16 10:52:56;;;;;;;10.20;5.47;;;23.80;27.20;;;;;;5114516;28;20036;-77
2022/09/16 10:55:27;;;;;;;17.45;12.80;;;23.50;66.30;;;;;;5109770;28;20052;-77
2022/09/16 10:58:07;;;;;;;32.92;24.38;;;23.40;95.80;;;;;;5094673;28;20086;-77
2022/09/16 11:00:43;;;;;;;8.80;5.28;;;23.40;99.90;;;;;;5094019;28;20044;-77
2022/09/16 11:03:44;;;;;;;7.93;5.20;;;23.40;99.90;;;;;;5100845;28;20036;-77
2022/09/16 11:06:25;;;;;;;8.05;5.22;;;23.30;99.90;;;;;;5094441;28;20442;-77
2022/09/16 11:09:04;;;;;;;10.73;4.68;;;23.50;99.90;;;;;;5092817;28;20048;-76
2022/09/16 11:11:51;;;;;;;8.18;4.85;;;23.30;99.90;;;;;;5100063;28;20048;-77
2022/09/16 11:14:29;;;;;;;6.90;4.50;;;23.20;99.90;;;;;;5114698;28;20044;-78
2022/09/16 11:17:10;;;;;;;10.65;5.63;;;23.30;99.90;;;;;;5114880;28;20486;-77
2022/09/16 11:19:49;;;;;;;8.43;4.88;;;23.50;93.20;;;;;;5114241;28;20035;-76
2022/09/16 11:22:30;;;;;;;11.02;5.00;;;23.70;99.90;;;;;;5114210;28;20047;-76
2022/09/16 11:25:24;;;;;;;7.10;4.95;;;24.10;65.30;;;;;;5113907;28;20082;-77
2022/09/16 11:27:59;;;;;;;12.00;6.75;;;24.50;38.10;;;;;;5113794;28;20044;-77
2022/09/16 11:30:30;;;;;;;10.88;4.97;;;24.70;29.20;;;;;;5114556;28;20051;-77
2022/09/16 11:33:22;;;;;;;7.50;4.93;;;25.00;1.00;;;;;;5113731;28;20036;-77
2022/09/16 11:36:22;;;;;;;7.57;4.18;;;24.50;1.00;;;;;;5113993;28;20406;-77
2022/09/16 11:39:03;;;;;;;5.80;3.85;;;24.60;1.00;;;;;;5095770;28;20047;-77
2022/09/16 11:41:35;;;;;;;6.68;4.35;;;24.40;1.00;;;;;;5115064;28;20047;-77
2022/09/16 11:44:28;;;;;;;8.35;4.38;;;24.50;1.00;;;;;;5117006;28;20467;-77
2022/09/16 11:47:08;;;;;;;6.57;3.30;;;24.90;1.00;;;;;;5117881;28;20068;-77
2022/09/16 11:49:56;;;;;;;5.38;4.05;;;25.30;1.00;;;;;;5114283;28;20043;-77
2022/09/16 11:52:37;;;;;;;8.95;4.72;;;25.10;1.00;;;;;;5112374;28;20043;-76
2022/09/16 11:55:25;;;;;;;12.68;6.30;;;25.00;99.90;;;;;;5113632;28;20052;-77
2022/09/16 11:57:56;;;;;;;4.97;3.10;;;25.20;97.50;;;;;;5095255;28;20043;-77
2022/09/16 12:00:23;;;;;;;10.82;7.25;;;25.10;1.00;;;;;;5113526;28;20510;-77
2022/09/16 12:02:58;;;;;;;7.30;3.65;;;25.00;1.00;;;;;;5103909;28;20032;-76
2022/09/16 12:05:31;;;;;;;8.20;3.63;;;25.00;1.00;;;;;;5106568;28;20088;-77
2022/09/16 12:08:06;;;;;;;9.23;4.22;;;24.90;99.90;;;;;;5114712;28;20035;-84
2022/09/16 12:10:42;;;;;;;6.90;3.55;;;24.50;99.90;;;;;;5113838;28;20047;-76
2022/09/16 12:13:15;;;;;;;5.43;3.33;;;24.40;91.50;;;;;;5113089;28;20065;-77
2022/09/16 12:15:47;;;;;;;7.95;4.45;;;24.40;99.90;;;;;;5113262;28;20112;-76
2022/09/16 12:18:19;;;;;;;13.02;7.32;;;24.30;1.00;;;;;;5112974;28;20047;-77
2022/09/16 12:20:50;;;;;;;10.23;5.72;;;24.20;99.90;;;;;;5113492;28;20044;-76
2022/09/16 12:23:20;;;;;;;8.25;4.43;;;24.40;99.90;;;;;;5112518;28;20448;-77
2022/09/16 12:26:09;;;;;;;7.57;4.88;;;23.90;1.00;;;;;;5112986;28;20499;-77
2022/09/16 12:28:42;;;;;;;11.35;5.88;;;23.80;1.00;;;;;;5107992;28;20032;-78
2022/09/16 12:31:15;;;;;;;6.53;5.43;;;23.80;1.00;;;;;;5095472;28;20074;-77
2022/09/16 12:33:50;;;;;;;6.43;5.22;;;23.90;1.00;;;;;;5094924;28;20051;-76
2022/09/16 12:36:24;;;;;;;9.45;5.70;;;23.90;1.00;;;;;;5113579;28;20096;-76
2022/09/16 12:38:51;;;;;;;6.82;5.10;;;23.70;1.00;;;;;;5112436;28;20096;-76
2022/09/16 12:41:51;;;;;;;10.70;4.95;;;24.00;1.00;;;;;;5094971;28;20043;-77
2022/09/16 12:44:53;;;;;;;7.28;5.07;;;24.00;1.00;;;;;;5128753;27;20035;-76
2022/09/16 12:47:56;;;;;;;10.82;5.97;;;24.00;1.00;;;;;;5096351;28;20449;-77
2022/09/16 12:51:01;;;;;;;10.60;4.80;;;23.60;1.00;;;;;;5112577;28;20043;-77
2022/09/16 12:53:54;;;;;;;9.32;4.97;;;23.30;1.00;;;;;;5091114;28;20407;-76
2022/09/16 12:56:44;;;;;;;10.73;6.70;;;23.30;1.00;;;;;;5096024;28;20047;-77
2022/09/16 12:59:41;;;;;;;8.90;5.90;;;23.60;1.00;;;;;;5112960;28;20032;-77
2022/09/16 13:02:17;;;;;;;10.48;5.72;;;23.90;1.00;;;;;;5098494;28;20044;-77
2022/09/16 13:04:47;;;;;;;12.27;6.70;;;23.70;1.00;;;;;;5095430;28;20461;-77
2022/09/16 13:07:24;;;;;;;8.27;7.00;;;23.90;1.00;;;;;;5096394;28;20055;-77
2022/09/16 13:10:02;;;;;;;7.80;6.85;;;23.60;1.00;;;;;;5095869;28;20043;-77
2022/09/16 13:12:30;;;;;;;12.18;9.02;;;23.50;1.00;;;;;;5096745;28;20090;-76
2022/09/16 13:15:00;;;;;;;10.52;7.88;;;23.20;1.00;;;;;;5097188;28;20043;-77